createdAt,value
2022-09-01T00:00:02.653Z,7.20
2022-09-01T00:02:36.993Z,7.20
2022-09-01T00:05:09.975Z,7.20
2022-09-01T00:07:40.596Z,7.40
2022-09-01T00:10:31.370Z,6.40
2022-09-01T00:13:07.111Z,6.90
2022-09-01T00:15:38.226Z,9.60
2022-09-01T00:20:59.589Z,8.10
2022-09-01T00:23:40.821Z,9.30
2022-09-01T00:26:32.517Z,8.50
2022-09-01T00:29:06.118Z,7.90
2022-09-01T00:31:40.493Z,6.40
2022-09-01T00:34:17.714Z,7.60
2022-09-01T00:36:51.132Z,7.00
2022-09-01T00:39:21.842Z,8.60
2022-09-01T00:42:05.933Z,7.80
2022-09-01T00:44:38.405Z,8.50
2022-09-01T00:47:20.359Z,7.60
2022-09-01T00:49:54.804Z,8.20
2022-09-01T00:52:33.279Z,8.00
2022-09-01T00:55:09.238Z,7.90
2022-09-01T00:57:51.446Z,8.20
2022-09-01T01:00:40.972Z,9.10
2022-09-01T01:03:14.346Z,9.20
2022-09-01T01:06:08.566Z,6.50
2022-09-01T01:08:44.529Z,8.40
2022-09-01T01:11:35.445Z,7.00
2022-09-01T01:14:27.821Z,8.10
2022-09-01T01:17:02.491Z,8.30
2022-09-01T01:20:00.445Z,10.50
2022-09-01T01:22:53.630Z,7.70
2022-09-01T01:25:24.634Z,9.00
2022-09-01T01:28:04.528Z,8.90
2022-09-01T01:30:36.922Z,8.10
2022-09-01T01:33:08.970Z,11.00
2022-09-01T01:35:43.793Z,8.90
2022-09-01T01:38:22.893Z,9.70
2022-09-01T01:40:56.391Z,9.00
2022-09-01T01:43:29.400Z,9.40
2022-09-01T01:46:20.650Z,8.70
2022-09-01T01:48:57.272Z,8.90
2022-09-01T01:51:33.017Z,8.70
2022-09-01T01:54:24.671Z,9.60
2022-09-01T01:57:17.304Z,9.00
2022-09-01T01:59:59.317Z,8.50
2022-09-01T02:02:40.202Z,8.30
2022-09-01T02:05:25.017Z,8.90
2022-09-01T02:08:03.941Z,9.10
2022-09-01T02:10:37.480Z,8.40
2022-09-01T02:13:12.078Z,8.60
2022-09-01T02:15:48.710Z,11.70
2022-09-01T02:18:34.357Z,9.80
2022-09-01T02:21:15.158Z,9.10
2022-09-01T02:23:57.502Z,9.60
2022-09-01T02:26:38.655Z,9.50
2022-09-01T02:29:18.069Z,8.80
2022-09-01T02:31:53.760Z,8.70
2022-09-01T02:34:29.087Z,8.10
2022-09-01T02:37:03.042Z,8.60
2022-09-01T02:39:36.013Z,8.50
2022-09-01T02:42:30.256Z,8.80
2022-09-01T02:45:15.749Z,8.60
2022-09-01T02:47:57.097Z,15.70
2022-09-01T02:50:39.951Z,8.60
2022-09-01T02:53:15.508Z,9.00
2022-09-01T02:56:09.667Z,8.60
2022-09-01T02:58:52.162Z,10.60
2022-09-01T03:01:44.786Z,10.70
2022-09-01T03:04:15.941Z,8.80
2022-09-01T03:06:49.879Z,8.90
2022-09-01T03:09:24.291Z,9.70
2022-09-01T03:12:15.187Z,11.40
2022-09-01T03:14:45.918Z,9.60
2022-09-01T03:17:37.009Z,12.20
2022-09-01T03:20:11.557Z,9.40
2022-09-01T03:22:46.045Z,9.00
2022-09-01T03:25:18.857Z,9.90
2022-09-01T03:28:11.212Z,9.00
2022-09-01T03:30:54.754Z,10.50
2022-09-01T03:33:29.761Z,9.60
2022-09-01T03:36:01.542Z,9.70
2022-09-01T03:38:36.048Z,12.50
2022-09-01T03:41:21.698Z,9.80
2022-09-01T03:44:16.240Z,10.50
2022-09-01T03:46:58.504Z,11.30
2022-09-01T03:49:29.429Z,10.00
2022-09-01T03:54:55.741Z,10.20
2022-09-01T03:57:42.887Z,11.30
2022-09-01T04:00:23.364Z,10.70
2022-09-01T04:03:01.428Z,10.40
2022-09-01T04:05:46.145Z,10.70
2022-09-01T04:08:17.106Z,9.60
2022-09-01T04:10:54.221Z,12.40
2022-09-01T04:13:28.047Z,9.10
2022-09-01T04:16:01.608Z,12.30
2022-09-01T04:18:35.951Z,10.40
2022-09-01T04:21:14.899Z,10.80
2022-09-01T04:23:48.919Z,11.50
2022-09-01T04:26:26.790Z,10.60
2022-09-01T04:28:58.615Z,9.90
2022-09-01T04:31:34.414Z,12.60
2022-09-01T04:34:14.584Z,12.20
2022-09-01T04:36:56.059Z,10.40
2022-09-01T04:39:29.715Z,10.80
2022-09-01T04:42:11.185Z,11.40
2022-09-01T04:44:54.004Z,12.00
2022-09-01T04:47:35.537Z,11.90
2022-09-01T04:50:17.556Z,11.70
2022-09-01T04:53:12.105Z,10.90
2022-09-01T04:56:07.641Z,11.70
2022-09-01T04:58:42.416Z,10.70
2022-09-01T05:01:43.569Z,10.70
2022-09-01T05:04:32.708Z,12.00
2022-09-01T05:07:08.489Z,11.50
2022-09-01T05:09:43.509Z,14.20
2022-09-01T05:12:39.337Z,11.40
2022-09-01T05:15:13.761Z,11.20
2022-09-01T05:17:44.881Z,11.50
2022-09-01T05:20:16.507Z,11.60
2022-09-01T05:23:02.022Z,12.00
2022-09-01T05:25:39.043Z,14.60
2022-09-01T05:28:12.828Z,11.00
2022-09-01T05:30:47.858Z,12.30
2022-09-01T05:33:21.778Z,11.40
2022-09-01T05:36:01.242Z,12.30
2022-09-01T05:38:52.329Z,12.90
2022-09-01T05:41:25.951Z,12.90
2022-09-01T05:44:00.570Z,11.00
2022-09-01T05:46:34.076Z,10.20
2022-09-01T05:49:16.296Z,10.00
2022-09-01T05:51:59.085Z,11.40
2022-09-01T05:54:32.645Z,10.00
2022-09-01T05:57:23.343Z,9.60
2022-09-01T05:59:58.237Z,10.00
2022-09-01T06:02:30.953Z,8.30
2022-09-01T06:05:14.164Z,10.90
2022-09-01T06:07:49.573Z,9.80
2022-09-01T06:10:20.254Z,9.80
2022-09-01T06:12:53.939Z,8.50
2022-09-01T06:15:25.611Z,8.60
2022-09-01T06:17:57.040Z,8.00
2022-09-01T06:20:31.778Z,8.60
2022-09-01T06:23:03.109Z,8.50
2022-09-01T06:28:04.570Z,8.80
2022-09-01T06:30:36.557Z,9.10
2022-09-01T06:33:14.138Z,8.60
2022-09-01T06:35:59.127Z,8.00
2022-09-01T06:38:30.057Z,7.80
2022-09-01T06:41:05.861Z,8.30
2022-09-01T06:43:37.090Z,9.00
2022-09-01T06:48:46.664Z,8.70
2022-09-01T06:51:21.738Z,8.50
2022-09-01T06:53:59.602Z,8.40
2022-09-01T06:56:41.565Z,8.80
2022-09-01T06:59:16.563Z,7.60
2022-09-01T07:02:01.448Z,8.00
2022-09-01T07:04:43.231Z,6.90
2022-09-01T07:10:25.247Z,8.10
2022-09-01T07:18:58.463Z,7.50
2022-09-01T07:21:41.960Z,6.40
2022-09-01T07:24:26.598Z,7.50
2022-09-01T07:27:35.613Z,7.80
2022-09-01T07:30:09.739Z,6.40
2022-09-01T07:32:47.607Z,8.00
2022-09-01T07:35:23.807Z,7.30
2022-09-01T07:38:48.487Z,9.40
2022-09-01T07:42:56.130Z,7.20
2022-09-01T07:44:10.429Z,8.00
2022-09-01T07:50:12.489Z,8.30
2022-09-01T07:52:44.211Z,8.90
2022-09-01T07:55:17.059Z,7.20
2022-09-01T07:57:47.787Z,7.40
2022-09-01T08:00:22.482Z,7.60
2022-09-01T08:02:57.102Z,6.80
2022-09-01T08:05:29.054Z,7.20
2022-09-01T08:08:00.254Z,7.50
2022-09-01T08:10:36.880Z,8.10
2022-09-01T08:13:15.420Z,7.20
2022-09-01T08:18:53.344Z,7.30
2022-09-01T08:21:30.510Z,8.60
2022-09-01T08:24:06.342Z,6.90
2022-09-01T08:26:40.548Z,6.70
2022-09-01T08:29:13.587Z,7.10
2022-09-01T08:31:47.444Z,6.80
2022-09-01T08:34:19.750Z,7.20
2022-09-01T08:36:50.656Z,7.50
2022-09-01T08:39:21.450Z,7.00
2022-09-01T08:42:05.350Z,6.60
2022-09-01T08:44:51.809Z,6.40
2022-09-01T08:47:43.749Z,6.70
2022-09-01T08:50:14.702Z,7.00
2022-09-01T08:53:32.693Z,7.70
2022-09-01T08:56:04.204Z,6.40
2022-09-01T09:01:32.330Z,6.90
2022-09-01T09:04:28.802Z,8.80
2022-09-01T09:07:07.436Z,7.10
2022-09-01T09:09:53.043Z,8.40
2022-09-01T09:12:50.896Z,6.50
2022-09-01T09:15:31.393Z,7.30
2022-09-01T09:18:34.473Z,6.90
2022-09-01T09:21:10.209Z,6.00
2022-09-01T09:23:46.394Z,6.70
2022-09-01T09:26:22.216Z,6.40
2022-09-01T09:28:55.146Z,6.00
2022-09-01T09:31:33.910Z,6.60
2022-09-01T09:34:17.077Z,5.90
2022-09-01T09:36:54.698Z,5.80
2022-09-01T09:39:26.828Z,7.60
2022-09-01T09:42:09.523Z,5.60
2022-09-01T09:44:47.044Z,6.50
2022-09-01T09:47:43.647Z,7.30
2022-09-01T09:50:20.361Z,7.10
2022-09-01T09:52:52.198Z,7.00
2022-09-01T09:55:31.007Z,5.70
2022-09-01T09:58:10.546Z,6.00
2022-09-01T10:00:43.645Z,6.00
2022-09-01T10:03:15.937Z,5.70
2022-09-01T10:05:48.397Z,5.70
2022-09-01T10:08:44.858Z,5.80
2022-09-01T10:11:35.692Z,6.70
2022-09-01T10:14:11.070Z,7.30
2022-09-01T10:16:49.110Z,6.30
2022-09-01T10:19:24.229Z,8.40
2022-09-01T10:21:55.382Z,6.40
2022-09-01T10:27:06.072Z,7.90
2022-09-01T10:29:47.917Z,7.60
2022-09-01T10:32:36.968Z,5.60
2022-09-01T10:35:13.668Z,6.90
2022-09-01T10:37:44.586Z,8.40
2022-09-01T10:42:55.192Z,5.90
2022-09-01T10:45:40.024Z,5.70
2022-09-01T10:48:33.577Z,6.10
2022-09-01T10:51:50.626Z,5.00
2022-09-01T10:54:55.717Z,4.80
2022-09-01T10:57:42.903Z,5.90
2022-09-01T11:03:56.312Z,5.00
2022-09-01T11:07:12.564Z,5.10
2022-09-01T11:09:44.996Z,5.90
2022-09-01T11:12:43.076Z,5.30
2022-09-01T11:15:38.893Z,5.00
2022-09-01T11:18:18.988Z,5.50
2022-09-01T11:20:50.922Z,5.20
2022-09-01T11:23:27.988Z,4.30
2022-09-01T11:28:50.030Z,5.00
2022-09-01T11:31:31.911Z,4.80
2022-09-01T11:34:13.950Z,4.90
2022-09-01T11:36:55.710Z,5.10
2022-09-01T11:39:35.894Z,5.30
2022-09-01T11:42:11.538Z,4.40
2022-09-01T11:44:49.005Z,6.60
2022-09-01T11:47:22.128Z,5.30
2022-09-01T11:49:59.702Z,5.60
2022-09-01T11:52:37.035Z,5.40
2022-09-01T11:55:10.566Z,5.50
2022-09-01T11:57:42.090Z,4.90
2022-09-01T12:00:16.010Z,6.50
2022-09-01T12:02:49.741Z,4.80
2022-09-01T12:05:30.822Z,5.10
2022-09-01T12:08:03.410Z,5.00
2022-09-01T12:10:37.561Z,5.80
2022-09-01T12:13:09.674Z,5.50
2022-09-01T12:16:06.913Z,5.90
2022-09-01T12:18:37.192Z,8.70
2022-09-01T12:21:09.522Z,5.60
2022-09-01T12:23:43.173Z,6.30
2022-09-01T12:26:16.472Z,5.60
2022-09-01T12:28:49.873Z,5.50
2022-09-01T12:31:24.176Z,6.20
2022-09-01T12:33:56.911Z,5.20
2022-09-01T12:36:31.881Z,4.50
2022-09-01T12:39:23.561Z,4.10
2022-09-01T12:42:10.569Z,4.00
2022-09-01T12:44:50.951Z,6.30
2022-09-01T12:50:29.969Z,5.10
2022-09-01T12:53:03.719Z,6.10
2022-09-01T12:55:52.046Z,5.80
2022-09-01T12:58:27.593Z,7.00
2022-09-01T13:01:02.030Z,6.10
2022-09-01T13:03:34.518Z,6.90
2022-09-01T13:06:06.912Z,5.50
2022-09-01T13:08:38.476Z,7.70
2022-09-01T13:13:42.522Z,5.70
2022-09-01T13:16:14.732Z,5.80
2022-09-01T13:24:14.684Z,6.80
2022-09-01T13:27:20.159Z,5.20
2022-09-01T13:29:36.850Z,5.50
2022-09-01T13:32:24.543Z,5.90
2022-09-01T13:34:56.329Z,7.30
2022-09-01T13:37:26.953Z,5.90
2022-09-01T13:39:57.569Z,6.70
2022-09-01T13:44:59.669Z,6.30
2022-09-01T13:50:10.856Z,5.00
2022-09-01T13:52:44.216Z,5.90
2022-09-01T13:55:17.112Z,5.40
2022-09-01T13:57:49.749Z,5.30
2022-09-01T14:00:25.411Z,4.70
2022-09-01T14:03:00.438Z,6.20
2022-09-01T14:05:33.276Z,6.10
2022-09-01T14:08:04.394Z,6.60
2022-09-01T14:10:39.226Z,6.40
2022-09-01T14:13:09.922Z,5.90
2022-09-01T14:18:09.842Z,5.60
2022-09-01T14:23:13.257Z,5.90
2022-09-01T14:25:48.103Z,7.60
2022-09-01T14:28:20.673Z,6.30
2022-09-01T14:35:55.223Z,6.20
2022-09-01T14:38:25.683Z,6.50
2022-09-01T14:40:56.481Z,5.50
2022-09-01T14:46:10.268Z,5.70
2022-09-01T14:48:46.357Z,5.30
2022-09-01T14:51:23.644Z,7.50
2022-09-01T14:54:02.837Z,6.30
2022-09-01T14:56:33.395Z,5.80
2022-09-01T14:59:04.145Z,6.10
2022-09-01T15:04:06.238Z,5.80
2022-09-01T15:09:07.399Z,6.30
2022-09-01T15:14:16.738Z,5.80
2022-09-01T15:16:47.473Z,6.00
2022-09-01T15:19:18.279Z,6.10
2022-09-01T15:21:49.443Z,6.20
2022-09-01T15:24:20.134Z,5.50
2022-09-01T15:26:50.974Z,5.30
2022-09-01T15:31:50.680Z,6.60
2022-09-01T15:34:21.337Z,7.10
2022-09-01T15:36:51.900Z,6.40
2022-09-01T15:39:22.727Z,6.10
2022-09-01T15:44:23.470Z,6.70
2022-09-01T15:46:54.218Z,6.10
2022-09-01T15:51:57.879Z,5.80
2022-09-01T15:54:30.699Z,5.90
2022-09-01T15:57:01.557Z,7.60
2022-09-01T15:59:32.991Z,5.90
2022-09-01T16:02:04.057Z,6.30
2022-09-01T16:04:34.843Z,7.00
2022-09-01T16:07:06.120Z,7.00
2022-09-01T16:09:37.240Z,6.40
2022-09-01T16:12:08.221Z,5.90
2022-09-01T16:14:40.531Z,5.60
2022-09-01T16:17:17.095Z,6.10
2022-09-01T16:19:56.004Z,6.30
2022-09-01T16:22:30.975Z,5.80
2022-09-01T16:25:07.565Z,5.90
2022-09-01T16:27:42.817Z,5.30
2022-09-01T16:30:16.657Z,6.40
2022-09-01T16:32:49.245Z,5.40
2022-09-01T16:35:23.660Z,5.90
2022-09-01T16:38:12.227Z,6.80
2022-09-01T16:40:47.343Z,6.80
2022-09-01T16:43:27.561Z,7.70
2022-09-01T16:46:08.948Z,7.90
2022-09-01T16:48:47.224Z,5.90
2022-09-01T16:51:28.924Z,6.80
2022-09-01T16:54:13.379Z,6.40
2022-09-01T16:56:54.998Z,5.30
2022-09-01T16:59:35.720Z,6.30
2022-09-01T17:02:24.444Z,6.20
2022-09-01T17:05:02.219Z,7.70
2022-09-01T17:07:45.956Z,6.50
2022-09-01T17:10:27.963Z,6.40
2022-09-01T17:12:58.752Z,6.20
2022-09-01T17:15:40.133Z,5.80
2022-09-01T17:18:22.295Z,6.30
2022-09-01T17:21:02.389Z,6.90
2022-09-01T17:23:38.477Z,5.80
2022-09-01T17:26:16.612Z,7.40
2022-09-01T17:28:52.160Z,6.00
2022-09-01T17:31:36.094Z,9.10
2022-09-01T17:34:22.131Z,5.70
2022-09-01T17:37:05.569Z,7.50
2022-09-01T17:39:43.685Z,6.70
2022-09-01T17:42:27.359Z,7.30
2022-09-01T17:45:02.146Z,7.70
2022-09-01T17:47:45.263Z,7.00
2022-09-01T17:50:21.971Z,7.00
2022-09-01T17:53:20.302Z,6.30
2022-09-01T17:55:55.828Z,6.80
2022-09-01T17:58:40.152Z,7.90
2022-09-01T18:01:24.099Z,6.60
2022-09-01T18:04:27.572Z,8.40
2022-09-01T18:07:03.485Z,7.70
2022-09-01T18:09:43.924Z,6.40
2022-09-01T18:12:23.555Z,7.20
2022-09-01T18:15:04.529Z,7.50
2022-09-01T18:17:36.826Z,7.40
2022-09-01T18:20:18.481Z,8.20
2022-09-01T18:25:39.824Z,6.40
2022-09-01T18:28:11.626Z,7.80
2022-09-01T18:30:53.397Z,7.10
2022-09-01T18:33:30.282Z,6.80
2022-09-01T18:36:18.069Z,7.20
2022-09-01T18:38:57.333Z,7.90
2022-09-01T18:41:44.541Z,7.20
2022-09-01T18:44:39.963Z,8.10
2022-09-01T18:47:15.327Z,8.60
2022-09-01T18:50:01.579Z,8.40
2022-09-01T18:52:48.704Z,7.00
2022-09-01T18:55:28.158Z,8.30
2022-09-01T18:58:04.032Z,8.50
2022-09-01T19:00:52.102Z,7.00
2022-09-01T19:06:12.980Z,7.20
2022-09-01T19:08:54.126Z,7.40
2022-09-01T19:11:33.817Z,9.80
2022-09-01T19:14:12.514Z,7.30
2022-09-01T19:16:56.759Z,7.20
2022-09-01T19:19:40.025Z,7.90
2022-09-01T19:22:15.850Z,7.70
2022-09-01T19:24:50.476Z,8.60
2022-09-01T19:27:27.217Z,9.50
2022-09-01T19:30:04.171Z,8.40
2022-09-01T19:32:40.004Z,7.70
2022-09-01T19:35:13.411Z,7.70
2022-09-01T19:37:47.885Z,8.90
2022-09-01T19:40:24.762Z,7.90
2022-09-01T19:43:04.108Z,8.60
2022-09-01T19:45:47.169Z,7.90
2022-09-01T19:48:22.434Z,8.20
2022-09-01T19:50:58.732Z,8.50
2022-09-01T19:53:50.036Z,8.70
2022-09-01T19:56:26.675Z,8.00
2022-09-01T19:59:14.212Z,9.60
2022-09-01T20:01:59.123Z,7.90
2022-09-01T20:04:43.018Z,7.50
2022-09-01T20:07:31.907Z,6.50
2022-09-01T20:10:28.644Z,8.10
2022-09-01T20:13:19.217Z,7.90
2022-09-01T20:15:55.734Z,7.20
2022-09-01T20:18:33.511Z,7.90
2022-09-01T20:21:24.505Z,7.70
2022-09-01T20:24:21.053Z,9.20
2022-09-01T20:27:01.653Z,7.90
2022-09-01T20:29:55.718Z,7.80
2022-09-01T20:32:54.878Z,8.90
2022-09-01T20:35:50.063Z,8.10
2022-09-01T20:39:05.909Z,7.70
2022-09-01T20:41:44.507Z,8.30
2022-09-01T20:44:23.571Z,7.70
2022-09-01T20:47:00.213Z,8.10
2022-09-01T20:52:36.549Z,8.90
2022-09-01T20:55:16.254Z,8.30
2022-09-01T20:57:57.917Z,8.60
2022-09-01T21:00:48.516Z,8.10
2022-09-01T21:03:47.250Z,7.40
2022-09-01T21:06:32.213Z,9.20
2022-09-01T21:12:11.097Z,9.10
2022-09-01T21:15:13.404Z,9.60
2022-09-01T21:17:56.301Z,8.80
2022-09-01T21:20:45.423Z,8.00
2022-09-01T21:23:37.084Z,8.00
2022-09-01T21:26:10.466Z,8.20
2022-09-01T21:28:57.430Z,7.20
2022-09-01T21:31:38.207Z,8.00
2022-09-01T21:34:22.801Z,9.30
2022-09-01T21:37:03.655Z,10.40
2022-09-01T21:39:34.415Z,8.40
2022-09-01T21:42:12.327Z,9.20
2022-09-01T21:44:56.348Z,8.00
2022-09-01T21:47:38.340Z,8.10
2022-09-01T21:50:24.076Z,9.40
2022-09-01T21:53:15.418Z,8.50
2022-09-01T21:55:56.514Z,8.90
2022-09-01T21:58:41.173Z,8.90
2022-09-01T22:01:22.085Z,7.70
2022-09-01T22:04:05.360Z,8.20
2022-09-01T22:06:56.208Z,8.90
2022-09-01T22:09:47.825Z,8.50
2022-09-01T22:12:21.600Z,9.60
2022-09-01T22:14:52.361Z,9.30
2022-09-01T22:17:28.199Z,7.90
2022-09-01T22:20:28.521Z,8.50
2022-09-01T22:26:00.208Z,8.60
2022-09-01T22:28:52.051Z,8.80
2022-09-01T22:31:38.667Z,10.50
2022-09-01T22:34:09.994Z,9.60
2022-09-01T22:36:48.549Z,10.00
2022-09-01T22:39:26.829Z,9.00
2022-09-01T22:41:57.572Z,8.80
2022-09-01T22:44:30.659Z,8.70
2022-09-01T22:47:06.723Z,7.70
2022-09-01T22:52:26.547Z,7.70
2022-09-01T22:55:09.182Z,8.30
2022-09-01T22:57:53.094Z,9.00
2022-09-01T23:00:48.542Z,9.50
2022-09-01T23:03:20.846Z,9.60
2022-09-01T23:06:05.360Z,10.10
2022-09-01T23:08:39.115Z,9.00
2022-09-01T23:11:14.277Z,9.80
2022-09-01T23:13:55.515Z,8.80
2022-09-01T23:16:28.582Z,9.40
2022-09-01T23:19:03.159Z,8.60
2022-09-01T23:21:42.394Z,9.10
2022-09-01T23:24:16.218Z,9.50
2022-09-01T23:26:51.372Z,8.40
2022-09-01T23:29:22.095Z,8.40
2022-09-01T23:32:00.612Z,9.10
2022-09-01T23:34:52.124Z,8.40
2022-09-01T23:37:25.254Z,8.10
2022-09-01T23:39:57.365Z,8.40
2022-09-01T23:42:35.646Z,9.30
2022-09-01T23:45:18.482Z,8.90
2022-09-01T23:47:52.224Z,9.00
2022-09-01T23:50:25.258Z,8.60
2022-09-01T23:52:55.862Z,8.60
2022-09-01T23:55:35.633Z,9.80
2022-09-01T23:58:08.923Z,9.00
